Time;durP1;ratioP1;P1;durP2;ratioP2;P2;SDS_P1;SDS_P2;PMS_P1;PMS_P2;Temp;Humidity;BMP_temperature;BMP_pressure;BME280_temperature;BME280_humidity;BME280_pressure;Samples;Min_cycle;Max_cycle;Signal;HPM_P1;HPM_P2
2023/10/03 00:00:55;;;;;;;11.70;6.35;;;;;;;16.44;90.67;100678.69;7390525;19;20683;-60
2023/10/03 00:03:23;;;;;;;12.45;6.38;;;;;;;16.45;90.84;100674.16;7387147;19;20377;-61
2023/10/03 00:05:51;;;;;;;11.98;6.60;;;;;;;16.45;90.64;100666.13;7389130;19;20388;-58
2023/10/03 00:08:18;;;;;;;10.60;6.38;;;;;;;16.46;90.96;100652.50;7391511;19;20376;-59
2023/10/03 00:10:45;;;;;;;10.50;5.78;;;;;;;16.50;90.88;100650.22;7394877;19;20360;-59
2023/10/03 00:13:12;;;;;;;11.63;6.28;;;;;;;16.54;90.58;100640.75;7397198;19;20887;-60
2023/10/03 00:15:49;;;;;;;12.20;6.43;;;;;;;16.56;90.47;100646.69;7396543;19;20952;-60
2023/10/03 00:18:16;;;;;;;12.35;6.10;;;;;;;16.60;90.43;100639.06;7399538;19;20871;-61
2023/10/03 00:20:43;;;;;;;11.25;5.95;;;;;;;16.64;90.37;100633.06;7399079;19;20353;-62
2023/10/03 00:23:11;;;;;;;11.40;6.00;;;;;;;16.67;90.15;100627.25;7393717;19;20355;-59
2023/10/03 00:25:38;;;;;;;11.77;6.28;;;;;;;16.71;89.83;100638.38;7397148;19;20364;-60
2023/10/03 00:28:06;;;;;;;10.52;5.68;;;;;;;16.75;89.95;100638.75;7398113;19;20381;-61
2023/10/03 00:30:36;;;;;;;11.05;5.80;;;;;;;16.78;89.76;100622.22;7396366;19;20369;-60
2023/10/03 00:33:04;;;;;;;11.63;6.10;;;;;;;16.82;89.48;100616.25;7395593;19;20373;-61
2023/10/03 00:35:32;;;;;;;12.97;6.80;;;;;;;16.86;89.46;100605.94;7397393;19;20954;-61
2023/10/03 00:38:00;;;;;;;10.90;6.28;;;;;;;16.89;89.20;100594.75;7397283;19;20364;-59
2023/10/03 00:40:27;;;;;;;12.52;6.43;;;;;;;16.92;89.03;100580.94;7397906;19;20365;-61
2023/10/03 00:42:57;;;;;;;11.40;5.90;;;;;;;16.95;88.73;100574.31;7394824;19;20447;-60
2023/10/03 00:45:26;;;;;;;11.93;5.88;;;;;;;16.96;88.82;100571.44;7396981;19;20439;-59
2023/10/03 00:47:54;;;;;;;11.30;6.00;;;;;;;16.98;88.79;100564.00;7398267;19;20366;-61
2023/10/03 00:50:23;;;;;;;11.18;5.97;;;;;;;17.01;88.51;100560.03;7395955;19;20360;-60
2023/10/03 00:52:56;;;;;;;12.95;6.45;;;;;;;17.04;88.51;100559.59;7397008;19;20866;-61
2023/10/03 00:55:26;;;;;;;10.38;5.93;;;;;;;17.07;88.82;100554.63;7393922;19;20368;-61
2023/10/03 00:58:06;;;;;;;12.68;5.97;;;;;;;17.10;88.31;100551.47;7396595;19;20380;-61
2023/10/03 01:00:37;;;;;;;11.40;6.07;;;;;;;17.16;88.14;100546.28;7394897;19;20388;-61
2023/10/03 01:03:06;;;;;;;14.25;6.13;;;;;;;17.19;88.04;100538.63;7394249;19;20372;-60
2023/10/03 01:05:36;;;;;;;11.52;6.35;;;;;;;17.22;88.17;100537.34;7396965;19;20373;-61
2023/10/03 01:08:05;;;;;;;12.27;5.88;;;;;;;17.23;88.04;100522.91;7395578;19;20746;-62
2023/10/03 01:10:32;;;;;;;11.52;6.03;;;;;;;17.25;87.60;100516.25;7394588;19;20451;-62
2023/10/03 01:13:09;;;;;;;11.55;6.10;;;;;;;17.25;87.61;100520.81;7395708;19;20365;-60
2023/10/03 01:15:36;;;;;;;12.00;6.05;;;;;;;17.26;87.29;100522.47;7394589;19;20367;-61
2023/10/03 01:18:04;;;;;;;12.68;6.43;;;;;;;17.26;87.23;100515.25;7395458;19;20375;-61
2023/10/03 01:20:40;;;;;;;11.90;6.10;;;;;;;17.28;86.79;100509.66;7394806;19;20912;-61
2023/10/03 01:23:10;;;;;;;11.40;5.80;;;;;;;17.28;86.96;100509.66;7393298;19;20651;-61
2023/10/03 01:25:43;;;;;;;13.50;5.93;;;;;;;17.29;86.59;100505.94;7396471;19;20416;-61
2023/10/03 01:28:11;;;;;;;12.75;6.57;;;;;;;17.28;86.28;100496.25;7394641;19;20386;-61
2023/10/03 01:30:40;;;;;;;12.20;6.30;;;;;;;17.29;86.34;100489.84;7393210;19;20372;-59
2023/10/03 01:33:10;;;;;;;14.20;6.75;;;;;;;17.29;85.84;100484.47;7395833;19;20445;-58
2023/10/03 01:35:37;;;;;;;13.37;6.30;;;;;;;17.28;85.88;100483.66;7395052;19;20865;-59
2023/10/03 01:38:05;;;;;;;12.33;6.40;;;;;;;17.25;85.68;100484.09;7394569;19;20901;-58
2023/10/03 01:40:32;;;;;;;13.00;6.40;;;;;;;17.22;85.66;100468.47;7396006;19;20364;-61
2023/10/03 01:42:59;;;;;;;13.40;6.30;;;;;;;17.17;85.21;100460.31;7394401;19;20372;-62
2023/10/03 01:45:27;;;;;;;12.57;6.33;;;;;;;17.10;85.25;100460.34;7395742;19;20372;-60
2023/10/03 01:47:58;;;;;;;14.67;7.20;;;;;;;17.05;85.52;100452.16;7393061;19;20379;-60
2023/10/03 01:50:29;;;;;;;13.25;6.80;;;;;;;16.99;85.64;100447.72;7395025;19;20369;-61
2023/10/03 01:52:57;;;;;;;12.93;6.85;;;;;;;16.93;85.92;100451.28;7393341;19;20694;-61
2023/10/03 01:55:24;;;;;;;11.98;6.25;;;;;;;16.87;85.79;100438.75;7393670;19;20396;-60
2023/10/03 01:57:52;;;;;;;13.85;6.47;;;;;;;16.83;85.97;100442.94;7392920;19;20448;-60
2023/10/03 02:00:25;;;;;;;13.05;6.75;;;;;;;16.81;86.07;100439.66;7393509;19;20456;-61
2023/10/03 02:02:54;;;;;;;13.00;6.30;;;;;;;16.79;86.48;100430.97;7394302;19;20772;-60
2023/10/03 02:05:26;;;;;;;13.23;6.43;;;;;;;16.79;86.30;100429.16;7395243;19;20667;-59
2023/10/03 02:08:04;;;;;;;14.55;6.97;;;;;;;16.79;86.83;100422.94;7391580;19;20364;-60
2023/10/03 02:10:33;;;;;;;13.23;7.03;;;;;;;16.83;86.59;100424.19;7392520;19;20951;-61
2023/10/03 02:12:59;;;;;;;14.85;7.47;;;;;;;16.85;86.63;100408.69;7391694;19;20453;-60
2023/10/03 02:15:26;;;;;;;13.75;7.55;;;;;;;16.87;86.89;100406.63;7395188;19;20381;-60
2023/10/03 02:17:55;;;;;;;13.68;7.18;;;;;;;16.90;86.90;100403.50;7393093;19;20359;-60
2023/10/03 02:20:25;;;;;;;14.43;6.70;;;;;;;16.91;86.87;100387.19;7395455;19;20368;-61
2023/10/03 02:22:55;;;;;;;15.25;7.35;;;;;;;16.94;86.62;100387.78;7393950;19;20375;-61
2023/10/03 02:25:30;;;;;;;14.27;7.03;;;;;;;16.98;86.98;100375.56;7391867;19;20368;-61
2023/10/03 02:28:00;;;;;;;13.38;6.63;;;;;;;17.05;86.79;100362.94;7393982;19;20415;-61
2023/10/03 02:30:26;;;;;;;13.07;7.22;;;;;;;17.14;87.19;100355.38;7395164;19;20639;-60
2023/10/03 02:32:54;;;;;;;14.07;6.97;;;;;;;17.27;86.89;100363.25;7392496;19;20389;-61
2023/10/03 02:35:22;;;;;;;14.15;7.25;;;;;;;17.44;86.11;100348.16;7391109;19;20361;-60
2023/10/03 02:37:58;;;;;;;13.13;7.28;;;;;;;17.59;85.34;100347.72;7391669;19;20380;-60
2023/10/03 02:40:30;;;;;;;13.57;7.22;;;;;;;17.74;84.91;100347.28;7389897;19;20455;-60
2023/10/03 02:42:59;;;;;;;15.00;6.95;;;;;;;17.88;83.78;100337.19;7391680;19;20399;-61
2023/10/03 02:45:28;;;;;;;14.63;7.10;;;;;;;17.98;83.23;100337.44;7392468;19;20352;-60
2023/10/03 02:47:55;;;;;;;13.38;6.95;;;;;;;18.11;82.64;100339.09;7391939;19;20365;-61
2023/10/03 02:50:26;;;;;;;11.93;6.53;;;;;;;18.20;81.84;100328.81;7388300;19;20373;-60
2023/10/03 02:52:57;;;;;;;14.30;7.05;;;;;;;18.30;81.62;100324.47;7385631;19;20451;-60
2023/10/03 02:55:23;;;;;;;14.68;7.00;;;;;;;18.36;80.68;100322.72;7392506;19;20742;-59
2023/10/03 02:57:50;;;;;;;13.98;6.82;;;;;;;18.45;80.47;100329.34;7387651;19;20376;-61
2023/10/03 03:00:19;;;;;;;13.73;6.97;;;;;;;18.50;79.95;100312.53;7391196;19;20372;-61
2023/10/03 03:02:47;;;;;;;13.35;6.90;;;;;;;18.55;79.74;100299.19;7389892;19;20397;-59
2023/10/03 03:05:22;;;;;;;12.82;6.75;;;;;;;18.61;79.48;100302.81;7393282;19;20363;-59
2023/10/03 03:07:58;;;;;;;12.27;6.80;;;;;;;18.65;79.03;100290.53;7391798;19;20353;-57
2023/10/03 03:10:28;;;;;;;12.65;6.78;;;;;;;18.70;78.65;100286.09;7391352;19;20682;-60
2023/10/03 03:12:55;;;;;;;13.68;6.72;;;;;;;18.73;78.11;100277.53;7389500;19;20373;-61
2023/10/03 03:15:23;;;;;;;11.65;6.18;;;;;;;18.78;78.27;100265.25;7392014;19;20361;-60
2023/10/03 03:17:53;;;;;;;13.68;6.70;;;;;;;18.79;78.11;100257.00;7393951;19;20767;-60
2023/10/03 03:20:33;;;;;;;12.82;7.15;;;;;;;18.81;77.40;100233.38;7391191;19;20622;-61
2023/10/03 03:23:00;;;;;;;15.55;7.50;;;;;;;18.82;77.67;100239.56;7391660;19;20372;-60
2023/10/03 03:25:42;;;;;;;12.85;7.03;;;;;;;18.83;77.33;100228.59;7391635;19;20561;-59
2023/10/03 03:28:13;;;;;;;13.82;7.28;;;;;;;18.82;77.54;100223.44;7392437;19;20376;-61
2023/10/03 03:30:46;;;;;;;13.98;7.13;;;;;;;18.83;77.06;100215.16;7393696;19;20337;-59
2023/10/03 03:33:14;;;;;;;13.85;7.10;;;;;;;18.83;77.27;100208.94;7392729;19;20372;-60
2023/10/03 03:35:41;;;;;;;13.32;7.10;;;;;;;18.82;77.13;100197.38;7391883;19;20708;-59
2023/10/03 03:38:15;;;;;;;15.05;7.93;;;;;;;18.81;77.22;100194.97;7390385;19;20435;-61
2023/10/03 03:40:58;;;;;;;15.23;7.45;;;;;;;18.79;76.78;100194.38;7390513;19;20362;-61
2023/10/03 03:43:25;;;;;;;13.50;6.70;;;;;;;18.78;76.91;100188.19;7392255;19;20690;-61
2023/10/03 03:45:52;;;;;;;16.73;7.82;;;;;;;18.77;76.89;100207.22;7395066;19;20843;-60
2023/10/03 03:48:21;;;;;;;15.43;7.82;;;;;;;18.77;76.68;100209.91;7400457;19;20368;-60
2023/10/03 03:50:51;;;;;;;14.52;7.47;;;;;;;18.75;76.38;100210.94;7400346;19;21007;-60
2023/10/03 03:53:21;;;;;;;16.17;7.60;;;;;;;18.81;75.84;100206.53;7398284;19;20356;-60
2023/10/03 03:55:49;;;;;;;15.18;7.93;;;;;;;18.86;75.50;100192.34;7398728;19;20374;-62
2023/10/03 03:58:18;;;;;;;16.75;8.27;;;;;;;18.92;75.39;100196.75;7399474;19;20368;-61
2023/10/03 04:00:50;;;;;;;16.42;8.15;;;;;;;18.97;74.70;100199.53;7399741;19;20389;-60
2023/10/03 04:03:19;;;;;;;15.48;7.97;;;;;;;19.02;74.63;100196.94;7398669;19;20447;-60
2023/10/03 04:05:47;;;;;;;15.23;8.02;;;;;;;19.09;74.54;100197.59;7398349;19;20454;-61
2023/10/03 04:08:18;;;;;;;13.38;7.40;;;;;;;19.10;73.78;100203.78;7399530;19;20348;-61
2023/10/03 04:10:46;;;;;;;16.80;8.07;;;;;;;19.13;73.54;100193.34;7397446;19;20356;-58
2023/10/03 04:13:17;;;;;;;15.65;8.30;;;;;;;19.17;73.62;100188.31;7394565;19;20375;-61
2023/10/03 04:15:45;;;;;;;15.50;8.43;;;;;;;19.21;73.19;100173.31;7397342;19;20374;-61
2023/10/03 04:18:14;;;;;;;17.67;8.05;;;;;;;19.19;72.77;100136.97;7395734;19;20695;-59
2023/10/03 04:20:44;;;;;;;15.55;8.10;;;;;;;19.23;73.04;100141.63;7398106;19;20356;-61
2023/10/03 04:23:11;;;;;;;14.57;8.00;;;;;;;19.22;72.89;100144.56;7396382;19;20898;-60
2023/10/03 04:25:39;;;;;;;16.73;8.30;;;;;;;19.20;72.96;100146.69;7392559;19;20374;-60
2023/10/03 04:28:09;;;;;;;16.52;8.40;;;;;;;19.17;73.19;100141.78;7392362;19;20344;-61
2023/10/03 04:30:36;;;;;;;14.77;7.40;;;;;;;19.07;73.49;100127.13;7393369;19;20389;-60
2023/10/03 04:33:03;;;;;;;15.52;8.13;;;;;;;19.08;73.55;100131.44;7399035;19;20377;-60
2023/10/03 04:35:30;;;;;;;18.40;8.73;;;;;;;19.07;73.53;100124.44;7400029;19;20408;-62
2023/10/03 04:37:57;;;;;;;16.73;8.93;;;;;;;19.07;73.42;100113.69;7400074;19;20393;-61
2023/10/03 04:40:31;;;;;;;18.48;9.27;;;;;;;19.05;73.63;100115.00;7400549;19;20382;-60
2023/10/03 04:42:58;;;;;;;19.88;8.30;;;;;;;19.02;73.11;100110.91;7396660;19;20372;-61
2023/10/03 04:45:25;;;;;;;16.55;8.93;;;;;;;19.01;73.29;100108.47;7400227;19;20365;-59
2023/10/03 04:47:53;;;;;;;16.00;8.43;;;;;;;19.02;73.51;100104.72;7398408;19;21041;-59
2023/10/03 04:50:25;;;;;;;17.92;8.88;;;;;;;19.03;73.27;100104.47;7398941;19;20360;-60
2023/10/03 04:52:53;;;;;;;16.35;8.32;;;;;;;19.05;73.23;100096.97;7397989;19;20869;-60
2023/10/03 04:55:22;;;;;;;17.05;8.93;;;;;;;19.04;73.07;100090.00;7397069;19;20396;-60
2023/10/03 04:57:51;;;;;;;17.60;8.80;;;;;;;19.08;73.31;100075.00;7393727;19;20710;-61
2023/10/03 05:00:20;;;;;;;17.00;8.50;;;;;;;19.10;72.75;100069.34;7397141;19;20345;-60
2023/10/03 05:02:49;;;;;;;15.00;8.13;;;;;;;19.13;73.13;100067.00;7394098;19;20368;-61
2023/10/03 05:05:18;;;;;;;17.77;8.65;;;;;;;19.15;72.61;100062.19;7395669;19;20371;-60
2023/10/03 05:07:45;;;;;;;16.70;8.10;;;;;;;19.20;72.47;100060.63;7394213;19;20368;-61
2023/10/03 05:10:12;;;;;;;18.17;8.93;;;;;;;19.22;72.61;100058.50;7398091;19;20452;-59
2023/10/03 05:12:39;;;;;;;18.90;9.60;;;;;;;19.25;72.37;100049.94;7398557;19;20913;-59
2023/10/03 05:15:07;;;;;;;17.30;8.82;;;;;;;19.28;72.11;100060.22;7398435;19;20342;-60
2023/10/03 05:17:35;;;;;;;19.40;8.93;;;;;;;19.34;71.64;100060.03;7397367;19;20363;-58
2023/10/03 05:20:03;;;;;;;18.35;9.23;;;;;;;19.38;72.11;100054.97;7397409;19;20353;-57
2023/10/03 05:22:32;;;;;;;19.35;8.85;;;;;;;19.39;71.76;100061.16;7397616;19;20360;-60
2023/10/03 05:25:00;;;;;;;15.23;7.72;;;;;;;19.41;71.78;100059.03;7393300;19;20392;-60
2023/10/03 05:27:32;;;;;;;17.02;8.75;;;;;;;19.43;71.36;100063.09;7397518;19;20370;-58
2023/10/03 05:30:02;;;;;;;16.55;8.50;;;;;;;19.47;71.44;100056.16;7397862;19;20408;-59
2023/10/03 05:32:29;;;;;;;16.98;8.32;;;;;;;19.49;70.93;100056.72;7396081;19;20368;-58
2023/10/03 05:34:56;;;;;;;17.23;8.88;;;;;;;19.49;71.49;100056.72;7397697;19;20888;-60
2023/10/03 05:37:22;;;;;;;16.40;8.40;;;;;;;19.51;71.09;100062.66;7395910;19;20888;-61
2023/10/03 05:39:49;;;;;;;17.75;9.00;;;;;;;19.54;71.05;100067.53;7398457;19;20685;-60
2023/10/03 05:42:19;;;;;;;16.98;8.43;;;;;;;19.60;70.68;100078.38;7397550;19;20363;-61
2023/10/03 05:44:46;;;;;;;16.20;8.80;;;;;;;19.62;70.48;100076.25;7396602;19;20343;-61
2023/10/03 05:47:13;;;;;;;16.43;8.77;;;;;;;19.66;70.46;100070.13;7395819;19;20370;-60
2023/10/03 05:49:40;;;;;;;15.35;8.00;;;;;;;19.68;69.87;100059.13;7396645;19;20370;-60
2023/10/03 05:52:08;;;;;;;16.95;8.77;;;;;;;19.71;69.37;100069.41;7397195;19;20381;-58
2023/10/03 05:54:35;;;;;;;17.55;8.10;;;;;;;19.75;69.71;100075.91;7395719;19;20431;-59
2023/10/03 05:57:02;;;;;;;15.95;8.10;;;;;;;19.77;69.36;100076.47;7396521;19;20355;-61
2023/10/03 05:59:29;;;;;;;16.33;8.25;;;;;;;19.79;69.20;100078.91;7396571;19;20352;-60
2023/10/03 06:01:58;;;;;;;16.30;8.53;;;;;;;19.83;68.92;100072.78;7397650;19;20360;-62
2023/10/03 06:04:26;;;;;;;16.80;8.60;;;;;;;19.84;69.03;100073.59;7394727;19;20361;-59
2023/10/03 06:06:54;;;;;;;16.98;8.50;;;;;;;19.87;69.21;100067.69;7396682;19;20364;-61
2023/10/03 06:09:21;;;;;;;18.77;9.52;;;;;;;19.88;68.71;100070.13;7394123;19;20352;-60
2023/10/03 06:11:48;;;;;;;18.45;9.18;;;;;;;19.89;68.90;100065.56;7396737;19;20393;-60
2023/10/03 06:14:15;;;;;;;18.10;8.75;;;;;;;19.88;69.10;100072.81;7396356;19;20381;-61
2023/10/03 06:16:42;;;;;;;19.15;9.88;;;;;;;19.91;69.19;100075.03;7395254;19;20344;-59
2023/10/03 06:19:10;;;;;;;16.23;8.70;;;;;;;19.91;69.10;100075.03;7394645;19;20348;-61
2023/10/03 06:21:37;;;;;;;17.98;8.77;;;;;;;19.95;69.03;100084.22;7397102;19;20356;-58
2023/10/03 06:24:04;;;;;;;17.08;8.60;;;;;;;19.95;69.14;100094.16;7394833;19;20412;-59
2023/10/03 06:26:31;;;;;;;17.63;9.20;;;;;;;20.00;69.08;100088.84;7394476;19;20695;-60
2023/10/03 06:28:58;;;;;;;19.70;8.88;;;;;;;20.03;68.61;100092.91;7396766;19;20356;-58
2023/10/03 06:31:25;;;;;;;17.45;8.98;;;;;;;20.06;68.96;100081.63;7396163;19;20373;-60
2023/10/03 06:33:52;;;;;;;16.80;8.38;;;;;;;20.10;68.81;100088.13;7394370;19;20364;-60
2023/10/03 06:36:19;;;;;;;19.05;8.73;;;;;;;20.12;68.39;100081.44;7396710;19;20369;-58
2023/10/03 06:38:45;;;;;;;18.38;9.07;;;;;;;20.14;68.71;100097.34;7397136;19;20337;-58
2023/10/03 06:41:17;;;;;;;16.80;8.85;;;;;;;20.20;68.73;100095.53;7395975;19;20369;-59
2023/10/03 06:43:44;;;;;;;16.50;8.73;;;;;;;20.23;68.67;100095.84;7395327;19;20424;-60
2023/10/03 06:46:11;;;;;;;16.40;8.48;;;;;;;20.30;69.01;100109.91;7394539;19;20332;-60
2023/10/03 06:48:38;;;;;;;18.35;8.75;;;;;;;20.36;68.92;100116.16;7395417;19;20347;-60
2023/10/03 06:51:06;;;;;;;19.63;9.25;;;;;;;20.39;68.43;100121.03;7393671;19;20373;-60
2023/10/03 06:53:33;;;;;;;17.00;8.63;;;;;;;20.45;68.56;100111.94;7393373;19;20919;-59
2023/10/03 06:56:00;;;;;;;17.10;8.50;;;;;;;20.52;67.83;100106.34;7395900;19;20380;-59
2023/10/03 06:58:27;;;;;;;16.13;8.25;;;;;;;20.54;67.93;100102.31;7395680;19;20372;-59
2023/10/03 07:00:55;;;;;;;18.15;9.07;;;;;;;20.59;67.57;100101.56;7392487;19;20355;-60
2023/10/03 07:03:22;;;;;;;16.23;8.32;;;;;;;20.67;67.37;100086.84;7394390;19;20394;-58
2023/10/03 07:05:50;;;;;;;16.55;8.27;;;;;;;20.73;67.39;100092.00;7386301;19;20368;-58
2023/10/03 07:08:17;;;;;;;16.02;8.38;;;;;;;20.82;67.10;100095.03;7392989;19;20368;-59
2023/10/03 07:10:44;;;;;;;17.00;8.63;;;;;;;20.89;67.38;100100.19;7392806;19;20370;-58
2023/10/03 07:13:13;;;;;;;17.13;8.60;;;;;;;20.97;67.00;100103.25;7393613;19;20931;-60
2023/10/03 07:15:40;;;;;;;16.75;9.00;;;;;;;21.04;66.36;100116.53;7394405;19;20363;-60
2023/10/03 07:18:07;;;;;;;19.40;9.25;;;;;;;21.14;66.84;100113.06;7391487;19;20372;-61
2023/10/03 07:20:35;;;;;;;17.67;8.45;;;;;;;21.25;66.53;100109.38;7395366;19;20373;-60
2023/10/03 07:23:02;;;;;;;17.30;8.85;;;;;;;21.38;66.64;100100.03;7401332;19;20367;-59
2023/10/03 07:25:32;;;;;;;16.33;8.53;;;;;;;21.50;65.83;100100.63;7399051;19;20391;-59
2023/10/03 07:27:59;;;;;;;17.07;8.50;;;;;;;21.63;65.35;100095.84;7401316;19;20344;-61
2023/10/03 07:30:26;;;;;;;17.25;8.38;;;;;;;21.75;65.41;100088.34;7396547;19;20366;-59
2023/10/03 07:32:53;;;;;;;15.25;8.13;;;;;;;21.85;64.81;100101.09;7398969;19;20350;-59
2023/10/03 07:35:21;;;;;;;15.63;8.77;;;;;;;21.91;64.64;100105.41;7398672;19;20356;-60
2023/10/03 07:37:51;;;;;;;16.00;8.13;;;;;;;21.97;64.46;100110.59;7396558;19;20351;-62
2023/10/03 07:40:21;;;;;;;16.50;8.52;;;;;;;22.02;64.19;100107.06;7398807;19;20810;-61
2023/10/03 07:42:49;;;;;;;15.25;8.00;;;;;;;22.11;64.29;100096.56;7397908;19;20374;-62
2023/10/03 07:45:17;;;;;;;17.48;8.63;;;;;;;22.16;64.02;100085.75;7387434;19;20596;-62
2023/10/03 07:47:45;;;;;;;15.75;8.45;;;;;;;22.18;63.90;100089.00;7396385;19;20367;-61
2023/10/03 07:50:13;;;;;;;15.32;7.93;;;;;;;22.21;64.02;100093.91;7393893;19;20373;-62
2023/10/03 07:52:44;;;;;;;15.50;7.88;;;;;;;22.24;63.69;100095.28;7396500;19;20352;-62
2023/10/03 07:55:11;;;;;;;13.77;7.90;;;;;;;22.27;63.74;100102.84;7399294;19;20388;-61
2023/10/03 07:57:41;;;;;;;15.07;7.90;;;;;;;22.30;64.04;100113.94;7396889;19;20368;-61
2023/10/03 08:00:17;;;;;;;13.70;7.57;;;;;;;22.25;64.23;100105.81;7394080;19;20761;-62
2023/10/03 08:02:44;;;;;;;16.17;8.10;;;;;;;22.26;63.38;100093.94;7396718;19;20389;-62
2023/10/03 08:05:11;;;;;;;15.63;7.85;;;;;;;22.26;64.16;100129.06;7392524;19;20389;-62
2023/10/03 08:07:38;;;;;;;14.88;7.78;;;;;;;22.27;63.88;100119.88;7396614;19;20381;-62
2023/10/03 08:10:06;;;;;;;15.43;8.15;;;;;;;22.26;64.49;100123.66;7398475;19;20446;-61
2023/10/03 08:12:38;;;;;;;14.23;7.50;;;;;;;22.25;64.06;100105.81;7398581;19;20352;-62
2023/10/03 08:15:16;;;;;;;14.63;7.80;;;;;;;22.26;64.23;100129.06;7399398;19;20381;-61
2023/10/03 08:17:45;;;;;;;14.15;7.53;;;;;;;22.25;64.56;100118.50;7397832;19;20375;-61
2023/10/03 08:20:14;;;;;;;14.37;7.33;;;;;;;22.27;64.47;100141.50;7395868;19;20349;-61
2023/10/03 08:22:42;;;;;;;16.85;7.93;;;;;;;22.31;64.59;100139.84;7394359;19;20372;-62
2023/10/03 08:25:09;;;;;;;14.13;7.80;;;;;;;22.30;64.64;100140.16;7391587;19;20372;-62
2023/10/03 08:27:36;;;;;;;12.77;7.25;;;;;;;22.33;64.48;100113.38;7398646;19;20880;-62
2023/10/03 08:30:04;;;;;;;14.50;7.80;;;;;;;22.42;64.64;100111.00;7398617;19;20352;-62
2023/10/03 08:32:32;;;;;;;13.77;7.47;;;;;;;22.47;64.71;100129.09;7397479;19;20772;-61
2023/10/03 08:34:59;;;;;;;15.10;8.07;;;;;;;22.51;64.72;100141.00;7397917;19;20376;-61
2023/10/03 08:37:25;;;;;;;17.07;7.57;;;;;;;22.54;64.12;100156.66;7398590;19;20371;-61
2023/10/03 08:39:52;;;;;;;17.73;7.93;;;;;;;22.57;64.13;100159.66;7391055;19;20366;-62
2023/10/03 08:42:36;;;;;;;17.37;9.20;;;;;;;22.63;63.61;100157.75;7392682;19;20368;-62
2023/10/03 08:45:16;;;;;;;15.35;7.93;;;;;;;22.63;64.08;100205.63;7394708;19;20372;-62
2023/10/03 08:47:49;;;;;;;14.00;7.90;;;;;;;22.62;64.52;100158.84;7398419;19;20381;-61
2023/10/03 08:50:29;;;;;;;12.43;7.28;;;;;;;22.59;63.87;100170.22;7397016;19;20738;-62
2023/10/03 08:52:57;;;;;;;15.57;7.57;;;;;;;22.57;64.23;100167.78;7397138;19;20436;-60
2023/10/03 08:55:26;;;;;;;14.52;7.30;;;;;;;22.49;65.04;100179.09;7391495;19;20910;-61
2023/10/03 08:57:53;;;;;;;15.93;8.07;;;;;;;22.47;64.74;100180.47;7395346;19;20426;-62
2023/10/03 09:00:25;;;;;;;13.52;7.28;;;;;;;22.49;64.84;100168.28;7380553;19;20344;-62
2023/10/03 09:03:09;;;;;;;16.13;7.82;;;;;;;22.52;65.17;100156.94;7391055;19;20360;-62
2023/10/03 09:05:40;;;;;;;13.48;7.53;;;;;;;22.46;65.18;100171.50;7394942;19;20935;-62
2023/10/03 09:08:08;;;;;;;14.85;8.02;;;;;;;22.54;65.22;100162.88;7397604;19;20365;-61
2023/10/03 09:10:52;;;;;;;14.77;8.20;;;;;;;22.59;65.34;100168.31;7395722;19;20353;-61
2023/10/03 09:13:25;;;;;;;14.70;7.93;;;;;;;22.59;65.53;100197.25;7392961;19;20381;-62
2023/10/03 09:16:00;;;;;;;15.70;8.10;;;;;;;22.63;65.61;100162.38;7391772;19;20416;-62
2023/10/03 09:18:30;;;;;;;15.05;7.75;;;;;;;22.64;65.87;100178.31;7393806;19;20389;-62
2023/10/03 09:21:00;;;;;;;13.80;8.00;;;;;;;22.62;65.91;100160.75;7393920;19;20361;-62
2023/10/03 09:23:28;;;;;;;13.43;7.28;;;;;;;22.59;65.70;100178.31;7393726;19;20653;-61
2023/10/03 09:25:57;;;;;;;15.00;7.75;;;;;;;22.64;66.33;100185.63;7392439;19;20368;-62
2023/10/03 09:28:35;;;;;;;15.45;7.95;;;;;;;22.71;66.03;100173.47;7397934;19;20344;-62
2023/10/03 09:31:08;;;;;;;14.77;6.95;;;;;;;22.82;66.25;100173.47;7397696;19;20647;-62
2023/10/03 09:33:39;;;;;;;12.82;7.13;;;;;;;22.86;66.17;100185.38;7397794;19;20333;-62
2023/10/03 09:36:08;;;;;;;13.38;7.43;;;;;;;22.88;65.92;100185.91;7397074;19;20369;-60
2023/10/03 09:38:44;;;;;;;14.45;8.02;;;;;;;22.82;66.49;100206.72;7397906;19;20352;-62
2023/10/03 09:41:17;;;;;;;14.85;7.97;;;;;;;22.74;66.53;100197.28;7397100;19;20373;-61
2023/10/03 09:43:54;;;;;;;12.63;7.20;;;;;;;22.60;67.34;100205.06;7393691;19;20363;-60
2023/10/03 09:47:00;;;;;;;12.63;7.55;;;;;;;22.51;67.60;100192.34;7395259;19;20875;-62
2023/10/03 09:49:15;;;;;;;14.43;8.10;;;;;;;22.48;68.01;100212.59;7395756;19;20379;-62
2023/10/03 09:51:51;;;;;;;12.30;7.73;;;;;;;22.46;67.95;100219.34;7396456;19;20424;-61
2023/10/03 09:54:30;;;;;;;13.00;7.90;;;;;;;22.38;68.29;100208.00;7394118;19;20388;-60
2023/10/03 09:56:57;;;;;;;13.10;7.57;;;;;;;22.33;68.37;100223.38;7396899;19;20855;-62
2023/10/03 09:59:24;;;;;;;11.93;7.33;;;;;;;22.32;68.85;100219.84;7396749;19;20411;-63
2023/10/03 10:01:55;;;;;;;13.50;6.95;;;;;;;22.30;68.98;100222.00;7395544;19;20674;-62
2023/10/03 10:04:25;;;;;;;12.27;7.30;;;;;;;22.23;69.31;100221.47;7387921;19;20367;-60
2023/10/03 10:07:34;;;;;;;10.50;6.60;;;;;;;22.19;69.94;100229.22;7395816;19;20357;-62
2023/10/03 10:10:13;;;;;;;11.38;6.70;;;;;;;22.23;69.92;100247.63;7392369;19;20379;-62
2023/10/03 10:13:13;;;;;;;13.93;6.95;;;;;;;22.29;69.38;100273.59;7394054;19;20361;-62
2023/10/03 10:16:07;;;;;;;11.55;6.85;;;;;;;22.39;69.32;100252.84;7394279;19;20416;-62
2023/10/03 10:18:44;;;;;;;12.00;6.77;;;;;;;22.64;68.79;100247.81;7392154;19;20772;-61
2023/10/03 10:21:37;;;;;;;13.18;6.63;;;;;;;22.88;67.44;100275.16;7392236;19;20392;-61
2023/10/03 10:24:15;;;;;;;11.32;5.80;;;;;;;22.95;66.82;100235.97;7393483;19;20373;-62
2023/10/03 10:26:48;;;;;;;11.30;5.93;;;;;;;22.93;65.99;100250.81;7393777;19;20386;-60
2023/10/03 10:29:20;;;;;;;11.55;4.97;;;;;;;22.92;65.62;100236.50;7394754;19;20398;-62
2023/10/03 10:31:57;;;;;;;9.32;5.28;;;;;;;23.00;66.52;100224.34;7394417;19;20352;-62
2023/10/03 10:34:32;;;;;;;9.57;5.32;;;;;;;23.21;66.46;100236.03;7390836;19;21362;-62
2023/10/03 10:37:15;;;;;;;9.98;4.70;;;;;;;23.19;64.58;100241.69;7394455;19;20912;-62
2023/10/03 10:40:04;;;;;;;8.60;4.97;;;;;;;23.19;64.63;100252.53;7393520;19;20463;-63
2023/10/03 10:42:51;;;;;;;10.70;4.72;;;;;;;23.10;64.65;100234.38;7394636;19;20361;-62
2023/10/03 10:45:20;;;;;;;7.72;3.95;;;;;;;23.02;64.17;100218.72;7395411;19;20448;-61
2023/10/03 10:47:54;;;;;;;7.50;4.07;;;;;;;22.95;64.34;100238.69;7394141;19;20967;-62
2023/10/03 10:50:28;;;;;;;6.97;3.50;;;;;;;22.84;64.31;100242.44;7394611;19;20868;-62
2023/10/03 10:52:57;;;;;;;7.03;3.10;;;;;;;22.76;63.54;100249.19;7394648;19;20895;-62
2023/10/03 10:55:26;;;;;;;6.10;3.15;;;;;;;22.77;63.98;100250.00;7391008;19;20360;-62
2023/10/03 10:58:03;;;;;;;4.85;2.65;;;;;;;22.76;63.43;100253.75;7393105;19;21039;-62
2023/10/03 11:00:33;;;;;;;4.40;2.30;;;;;;;22.51;63.52;100262.63;7394042;19;20360;-62
2023/10/03 11:03:02;;;;;;;7.53;2.28;;;;;;;22.41;63.59;100286.91;7394654;19;20348;-62
2023/10/03 11:05:50;;;;;;;5.47;2.53;;;;;;;22.29;64.89;100296.06;7390727;19;20439;-62
2023/10/03 11:08:21;;;;;;;4.53;2.08;;;;;;;22.24;65.30;100287.91;7390745;19;20706;-60
2023/10/03 11:10:53;;;;;;;5.00;2.20;;;;;;;22.22;65.75;100314.34;7391270;19;20463;-62
2023/10/03 11:13:21;;;;;;;4.32;2.10;;;;;;;22.19;65.78;100306.78;7390589;19;20365;-62
2023/10/03 11:15:52;;;;;;;4.95;2.40;;;;;;;22.11;65.85;100310.78;7391164;19;20395;-62
2023/10/03 11:18:30;;;;;;;6.70;2.40;;;;;;;22.17;66.08;100308.94;7391340;19;20804;-61
2023/10/03 11:20:58;;;;;;;4.27;2.03;;;;;;;22.31;66.10;100295.78;7391931;19;20336;-62
2023/10/03 11:23:26;;;;;;;5.28;2.42;;;;;;;22.27;65.89;100292.81;7393113;19;20368;-61
2023/10/03 11:25:53;;;;;;;5.10;2.40;;;;;;;22.25;65.73;100288.72;7392128;19;20423;-62
2023/10/03 11:28:20;;;;;;;5.80;2.55;;;;;;;22.23;66.12;100290.88;7392124;19;20701;-62
2023/10/03 11:31:06;;;;;;;6.38;2.75;;;;;;;22.20;66.73;100276.78;7391205;19;20368;-62